Time;durP1;ratioP1;P1;durP2;ratioP2;P2;SDS_P1;SDS_P2;PMS_P1;PMS_P2;Temp;Humidity;BMP_temperature;BMP_pressure;BME280_temperature;BME280_humidity;BME280_pressure;Samples;Min_cycle;Max_cycle;Signal;HPM_P1;HPM_P2
2023/07/10 00:00:06;;;;;;;14.95;4.25;;;;;;;19.08;89.82;101835.63;5041852;28;20025;-78
2023/07/10 00:02:31;;;;;;;10.80;3.70;;;;;;;19.11;90.02;101846.22;5057548;28;20132;-78
2023/07/10 00:04:56;;;;;;;10.73;3.95;;;;;;;19.09;89.88;101850.09;5063532;28;20052;-78
2023/07/10 00:07:22;;;;;;;16.98;4.03;;;;;;;19.07;88.89;101850.25;5052424;28;20021;-78
2023/07/10 00:09:47;;;;;;;13.07;3.78;;;;;;;19.07;89.13;101855.69;5056153;28;20546;-78
2023/07/10 00:12:17;;;;;;;13.82;4.20;;;;;;;19.04;88.89;101848.66;5033849;28;20457;-78
2023/07/10 00:14:43;;;;;;;13.73;4.25;;;;;;;19.00;91.26;101844.50;5041381;28;20017;-78
2023/07/10 00:17:09;;;;;;;14.30;4.20;;;;;;;18.98;91.92;101856.56;5057911;28;20055;-78
2023/07/10 00:19:34;;;;;;;11.82;4.03;;;;;;;18.99;91.25;101860.97;5040228;28;20035;-78
2023/07/10 00:22:00;;;;;;;13.43;4.05;;;;;;;18.96;93.04;101853.09;5039847;28;20058;-78
2023/07/10 00:24:25;;;;;;;15.32;3.92;;;;;;;18.91;94.79;101853.53;5039715;28;20370;-78
2023/07/10 00:26:50;;;;;;;14.82;4.05;;;;;;;18.86;95.51;101850.38;5041081;28;20163;-77
2023/07/10 00:29:22;;;;;;;14.13;4.18;;;;;;;18.78;96.74;101847.47;5043172;28;20032;-78
2023/07/10 00:31:47;;;;;;;13.02;4.22;;;;;;;18.72;95.95;101851.63;5061350;28;20368;-78
2023/07/10 00:34:14;;;;;;;13.25;4.00;;;;;;;18.65;98.24;101842.28;5042105;28;20032;-78
2023/07/10 00:36:41;;;;;;;13.48;4.00;;;;;;;18.57;97.26;101840.28;5061134;28;20025;-78
2023/07/10 00:39:25;;;;;;;13.77;4.03;;;;;;;18.55;98.50;101841.41;5051364;28;20456;-78
2023/07/10 00:41:58;;;;;;;12.10;3.70;;;;;;;18.49;98.15;101854.59;5034771;28;20114;-78
2023/07/10 00:44:29;;;;;;;10.95;3.60;;;;;;;18.44;95.09;101856.88;5034803;28;20388;-78
2023/07/10 00:46:59;;;;;;;13.63;3.63;;;;;;;18.41;99.69;101859.03;5039055;28;20603;-79
2023/07/10 00:49:43;;;;;;;;;;;;;;;18.48;96.14;101858.31;5040188;28;20345;-78
2023/07/10 00:52:17;;;;;;;11.63;4.03;;;;;;;18.36;97.34;101856.72;5058212;28;19955;-78
2023/07/10 00:54:47;;;;;;;10.32;3.67;;;;;;;18.33;98.18;101851.53;5043222;28;20051;-78
2023/07/10 00:57:20;;;;;;;14.30;4.25;;;;;;;18.31;100.00;101850.81;5053121;28;20029;-78
2023/07/10 00:59:46;;;;;;;10.75;3.42;;;;;;;18.28;100.00;101840.22;5062219;28;20028;-78
2023/07/10 01:02:11;;;;;;;13.50;3.97;;;;;;;18.25;100.00;101852.22;5060075;28;20502;-75
2023/07/10 01:04:42;;;;;;;13.20;3.85;;;;;;;18.21;100.00;101848.06;5057745;28;20025;-75
2023/07/10 01:07:10;;;;;;;13.82;4.10;;;;;;;18.15;100.00;101849.47;5033146;28;20419;-75
2023/07/10 01:09:36;;;;;;;15.45;3.90;;;;;;;18.14;99.09;101857.78;5045145;28;20031;-75
2023/07/10 01:12:04;;;;;;;13.63;4.13;;;;;;;18.15;97.01;101859.50;5050296;28;20374;-75
2023/07/10 01:14:34;;;;;;;11.85;3.95;;;;;;;18.13;100.00;101851.47;5047012;28;20021;-75
2023/07/10 01:17:05;;;;;;;12.55;4.05;;;;;;;18.07;100.00;101849.31;5046057;28;20051;-75
2023/07/10 01:19:33;;;;;;;13.02;4.00;;;;;;;18.06;100.00;101857.63;5059839;28;20448;-75
2023/07/10 01:21:59;;;;;;;16.10;4.50;;;;;;;18.05;100.00;101856.75;5035486;28;20029;-75
2023/07/10 01:24:24;;;;;;;15.75;4.07;;;;;;;17.99;100.00;101851.84;5038907;28;20021;-75
2023/07/10 01:26:51;;;;;;;15.15;4.32;;;;;;;17.96;100.00;101854.84;5049368;28;20039;-76
2023/07/10 01:29:24;;;;;;;12.20;3.58;;;;;;;17.92;100.00;101848.84;5054798;28;20071;-76
2023/07/10 01:31:54;;;;;;;10.90;3.50;;;;;;;17.89;100.00;101845.47;5062670;28;20025;-75
2023/07/10 01:34:23;;;;;;;12.80;3.83;;;;;;;17.81;100.00;101846.16;5036918;28;20358;-75
2023/07/10 01:36:50;;;;;;;13.65;4.03;;;;;;;17.80;100.00;101836.28;5053674;28;20029;-75
2023/07/10 01:39:15;;;;;;;16.55;4.10;;;;;;;17.76;100.00;101834.81;5066848;28;20036;-75
2023/07/10 01:41:45;;;;;;;10.63;3.50;;;;;;;17.73;100.00;101843.25;5054523;28;20070;-75
2023/07/10 01:44:19;;;;;;;;;;;;;;;17.84;99.54;101839.59;5044316;28;20076;-75
2023/07/10 01:46:44;;;;;;;14.50;4.38;;;;;;;17.74;100.00;101847.69;5053909;28;20006;-75
2023/07/10 01:49:10;;;;;;;13.43;4.20;;;;;;;17.71;100.00;101850.69;5056050;28;20056;-75
2023/07/10 01:51:35;;;;;;;15.98;4.88;;;;;;;17.67;100.00;101852.81;5052673;28;20029;-75
2023/07/10 01:54:04;;;;;;;12.77;4.47;;;;;;;17.67;100.00;101857.38;5045322;28;20700;-75
2023/07/10 01:56:31;;;;;;;13.13;4.10;;;;;;;17.66;100.00;101848.38;5057725;28;20111;-75
2023/07/10 01:58:56;;;;;;;12.65;4.53;;;;;;;17.64;100.00;101840.38;5035138;28;20024;-75
2023/07/10 02:01:22;;;;;;;13.88;3.90;;;;;;;17.63;100.00;101848.66;5059890;28;20533;-75
2023/07/10 02:03:47;;;;;;;12.60;4.30;;;;;;;17.55;100.00;101843.88;5055842;28;20036;-75
2023/07/10 02:06:12;;;;;;;11.52;4.15;;;;;;;17.53;100.00;101847.72;5040421;28;20048;-75
2023/07/10 02:08:38;;;;;;;12.52;4.03;;;;;;;17.50;100.00;101843.41;5057485;28;20032;-75
2023/07/10 02:11:03;;;;;;;13.60;4.20;;;;;;;17.44;100.00;101843.97;5042528;28;20123;-75
2023/07/10 02:13:28;;;;;;;12.52;4.53;;;;;;;17.39;100.00;101846.19;5041247;28;20112;-75
2023/07/10 02:16:00;;;;;;;20.70;4.82;;;;;;;17.35;100.00;101855.59;5040266;28;20029;-75
2023/07/10 02:18:25;;;;;;;14.10;4.63;;;;;;;17.32;100.00;101854.03;5057925;28;20130;-75
2023/07/10 02:20:52;;;;;;;13.02;4.47;;;;;;;17.31;100.00;101852.31;5044188;28;20056;-74
2023/07/10 02:23:18;;;;;;;16.42;5.40;;;;;;;17.27;100.00;101861.72;5047881;28;20119;-75
2023/07/10 02:25:43;;;;;;;14.57;4.25;;;;;;;17.27;100.00;101865.28;5059751;28;20115;-75
2023/07/10 02:28:08;;;;;;;16.17;4.75;;;;;;;17.28;100.00;101868.88;5041440;28;20028;-75
2023/07/10 02:30:37;;;;;;;14.60;4.38;;;;;;;17.30;100.00;101869.59;5056827;28;20459;-75
2023/07/10 02:33:03;;;;;;;14.35;4.15;;;;;;;17.32;100.00;101875.78;5037600;28;20029;-75
2023/07/10 02:35:28;;;;;;;14.60;4.53;;;;;;;17.37;100.00;101870.78;5053371;28;20028;-75
2023/07/10 02:37:53;;;;;;;18.30;5.35;;;;;;;17.39;100.00;101874.22;5039054;28;20060;-74
2023/07/10 02:40:19;;;;;;;20.85;6.38;;;;;;;17.42;100.00;101865.84;5058462;28;20098;-75
2023/07/10 02:42:44;;;;;;;15.80;4.93;;;;;;;17.45;100.00;101867.41;5038462;28;20128;-75
2023/07/10 02:45:10;;;;;;;15.00;5.93;;;;;;;17.43;100.00;101872.97;5043695;28;20053;-75
2023/07/10 02:47:35;;;;;;;16.00;5.80;;;;;;;17.41;100.00;101866.81;5034370;28;20131;-75
2023/07/10 02:50:00;;;;;;;22.60;6.45;;;;;;;17.39;100.00;101863.34;5042718;28;20189;-75
2023/07/10 02:52:25;;;;;;;18.00;6.43;;;;;;;17.38;100.00;101866.22;5057335;28;20154;-75
2023/07/10 02:54:51;;;;;;;17.73;6.30;;;;;;;17.36;100.00;101865.50;5032315;28;20115;-75
2023/07/10 02:57:16;;;;;;;17.98;6.25;;;;;;;17.34;100.00;101871.06;5054628;28;20379;-75
2023/07/10 02:59:41;;;;;;;17.88;6.97;;;;;;;17.32;100.00;101886.66;5035058;28;20034;-75
2023/07/10 03:02:07;;;;;;;21.20;8.07;;;;;;;17.29;100.00;101881.44;5053161;28;20120;-74
2023/07/10 03:04:32;;;;;;;18.58;7.93;;;;;;;17.29;100.00;101885.03;5028282;28;20026;-75
2023/07/10 03:06:57;;;;;;;22.35;8.30;;;;;;;17.30;100.00;101880.47;5042305;28;20151;-75
2023/07/10 03:09:23;;;;;;;20.75;8.55;;;;;;;17.34;100.00;101876.50;5060459;28;20103;-74
2023/07/10 03:11:48;;;;;;;22.83;8.65;;;;;;;17.34;100.00;101881.06;5041026;28;20036;-75
2023/07/10 03:14:13;;;;;;;22.25;9.23;;;;;;;17.35;100.00;101889.09;5057567;28;20020;-74
2023/07/10 03:16:39;;;;;;;21.38;9.15;;;;;;;17.35;100.00;101889.09;5052597;28;20124;-75
2023/07/10 03:19:04;;;;;;;21.25;8.95;;;;;;;17.34;100.00;101898.22;5041766;28;20032;-75
2023/07/10 03:21:29;;;;;;;20.10;8.85;;;;;;;17.33;100.00;101899.22;5042829;28;20071;-74
2023/07/10 03:23:55;;;;;;;21.00;9.00;;;;;;;17.28;100.00;101896.91;5034995;28;20094;-75
2023/07/10 03:26:20;;;;;;;20.27;8.98;;;;;;;17.27;100.00;101902.47;5036574;28;20071;-75
2023/07/10 03:28:45;;;;;;;20.65;9.63;;;;;;;17.26;100.00;101906.16;5043752;28;20102;-75
2023/07/10 03:31:11;;;;;;;20.15;9.23;;;;;;;17.23;100.00;101903.72;5053965;28;20087;-75
2023/07/10 03:33:36;;;;;;;22.70;9.65;;;;;;;17.19;100.00;101904.97;5037061;28;20013;-75
2023/07/10 03:36:06;;;;;;;22.42;9.20;;;;;;;17.15;100.00;101895.38;5057735;28;20037;-75
2023/07/10 03:38:33;;;;;;;21.70;9.50;;;;;;;17.10;100.00;101907.47;5039136;28;20032;-75
2023/07/10 03:40:59;;;;;;;22.60;9.40;;;;;;;17.08;100.00;101897.72;5033160;28;20029;-75
2023/07/10 03:43:25;;;;;;;21.13;9.70;;;;;;;17.07;100.00;101896.00;5052226;28;20036;-75
2023/07/10 03:45:52;;;;;;;20.52;8.90;;;;;;;17.05;100.00;101900.72;5057894;28;20323;-74
2023/07/10 03:48:18;;;;;;;20.63;9.05;;;;;;;17.02;100.00;101904.53;5040589;28;20142;-75
2023/07/10 03:50:43;;;;;;;21.08;9.38;;;;;;;16.98;100.00;101908.50;5062852;28;20103;-75
2023/07/10 03:53:08;;;;;;;21.75;8.95;;;;;;;16.95;100.00;101903.31;5040426;28;20024;-74
2023/07/10 03:55:34;;;;;;;21.10;9.18;;;;;;;16.91;100.00;101913.59;5055976;28;20453;-75
2023/07/10 03:57:59;;;;;;;19.58;9.00;;;;;;;16.88;100.00;101912.97;5060883;28;20036;-75
2023/07/10 04:00:26;;;;;;;21.75;9.13;;;;;;;16.85;100.00;101913.19;5042338;28;20099;-74
2023/07/10 04:02:51;;;;;;;22.05;8.73;;;;;;;16.85;100.00;101924.06;5056625;28;20037;-75
2023/07/10 04:05:16;;;;;;;19.67;8.73;;;;;;;16.81;100.00;101925.28;5045324;28;20032;-75
2023/07/10 04:07:42;;;;;;;21.25;8.32;;;;;;;16.79;100.00;101928.13;5068331;28;20419;-75
2023/07/10 04:10:07;;;;;;;21.38;9.05;;;;;;;16.76;100.00;101926.56;5044250;28;20401;-75
2023/07/10 04:12:33;;;;;;;20.88;8.70;;;;;;;16.74;100.00;101933.94;5058376;28;20135;-75
2023/07/10 04:14:58;;;;;;;21.90;9.35;;;;;;;16.77;100.00;101938.28;5053749;28;20036;-74
2023/07/10 04:17:24;;;;;;;22.15;10.02;;;;;;;16.76;100.00;101945.56;5042995;28;20101;-74
2023/07/10 04:19:49;;;;;;;22.40;10.32;;;;;;;16.76;100.00;101937.44;5058422;28;20139;-74
2023/07/10 04:22:14;;;;;;;21.90;10.55;;;;;;;16.80;100.00;101932.59;5056636;28;20032;-74
2023/07/10 04:24:40;;;;;;;21.52;9.85;;;;;;;16.81;100.00;101933.44;5063780;28;20112;-74
2023/07/10 04:27:08;;;;;;;20.35;9.73;;;;;;;16.86;100.00;101932.06;5054624;28;20396;-75
2023/07/10 04:29:34;;;;;;;22.07;11.10;;;;;;;16.90;100.00;101939.00;5065078;28;20103;-74
2023/07/10 04:31:59;;;;;;;20.23;9.57;;;;;;;16.93;100.00;101932.47;5054788;28;20112;-74
2023/07/10 04:34:24;;;;;;;24.83;11.43;;;;;;;16.98;100.00;101934.81;5041166;28;20035;-74
2023/07/10 04:36:50;;;;;;;22.75;11.02;;;;;;;17.01;100.00;101931.81;5037276;28;20021;-74
2023/07/10 04:39:15;;;;;;;25.23;11.52;;;;;;;17.02;100.00;101936.28;5066099;28;20537;-75
2023/07/10 04:41:43;;;;;;;23.25;10.30;;;;;;;17.06;100.00;101935.88;5034149;28;20090;-74
2023/07/10 04:44:08;;;;;;;24.25;12.57;;;;;;;17.09;100.00;101932.06;5031708;28;20053;-75
2023/07/10 04:46:34;;;;;;;24.67;11.30;;;;;;;17.10;100.00;101937.34;5042997;28;20357;-75
2023/07/10 04:48:59;;;;;;;24.55;11.48;;;;;;;17.12;100.00;101940.78;5043787;28;20477;-75
2023/07/10 04:51:24;;;;;;;25.58;11.65;;;;;;;17.12;100.00;101938.06;5042167;28;20032;-74
2023/07/10 04:53:50;;;;;;;21.10;10.02;;;;;;;17.10;100.00;101942.78;5048078;28;20329;-75
2023/07/10 04:56:17;;;;;;;21.52;10.85;;;;;;;17.10;100.00;101942.78;5039842;28;20113;-75
2023/07/10 04:58:57;;;;;;;21.83;10.55;;;;;;;17.12;100.00;101948.94;5043384;28;20055;-75
2023/07/10 05:01:28;;;;;;;22.77;11.35;;;;;;;17.14;100.00;101947.97;5061144;28;20028;-74
2023/07/10 05:03:54;;;;;;;23.05;11.02;;;;;;;17.14;100.00;101950.69;5057240;28;20033;-75
2023/07/10 05:06:20;;;;;;;22.85;11.57;;;;;;;17.16;100.00;101954.13;5039994;28;20349;-75
2023/07/10 05:08:46;;;;;;;24.40;13.30;;;;;;;17.18;100.00;101958.44;5041150;28;20029;-75
2023/07/10 05:11:13;;;;;;;28.02;12.43;;;;;;;17.20;100.00;101951.00;5038131;28;20021;-75
2023/07/10 05:13:38;;;;;;;24.75;11.95;;;;;;;17.22;100.00;101959.91;5040529;28;20020;-74
2023/07/10 05:16:04;;;;;;;23.70;11.77;;;;;;;17.27;100.00;101954.09;5057700;28;20206;-78
2023/07/10 05:18:29;;;;;;;22.95;11.48;;;;;;;17.30;100.00;101953.81;5042028;28;20517;-79
2023/07/10 05:20:58;;;;;;;24.48;12.07;;;;;;;17.35;100.00;101964.28;5051571;28;20540;-79
2023/07/10 05:23:24;;;;;;;21.38;10.90;;;;;;;17.39;100.00;101963.06;5055261;28;20029;-79
2023/07/10 05:25:58;;;;;;;27.58;11.52;;;;;;;17.41;100.00;101964.66;5057156;28;20090;-79
2023/07/10 05:28:24;;;;;;;23.45;11.23;;;;;;;17.48;100.00;101964.97;5026799;28;20021;-79
2023/07/10 05:30:50;;;;;;;21.83;10.60;;;;;;;17.52;100.00;101966.44;5038906;28;20028;-79
2023/07/10 05:33:15;;;;;;;21.40;10.07;;;;;;;17.56;100.00;101969.78;5062167;28;20086;-79
2023/07/10 05:35:56;;;;;;;23.00;10.10;;;;;;;17.60;100.00;101969.38;5035052;28;20500;-79
2023/07/10 05:38:23;;;;;;;25.65;10.65;;;;;;;17.62;100.00;101970.09;5034606;28;20062;-79
2023/07/10 05:40:49;;;;;;;18.63;9.20;;;;;;;17.63;100.00;101969.13;5049856;28;20082;-79
2023/07/10 05:43:14;;;;;;;20.38;8.52;;;;;;;17.65;100.00;101967.13;5059598;28;20461;-79
2023/07/10 05:45:39;;;;;;;20.17;8.57;;;;;;;17.70;100.00;101966.75;5059181;28;20040;-78
2023/07/10 05:48:05;;;;;;;22.23;8.45;;;;;;;17.74;100.00;101965.47;5040363;28;20477;-76
2023/07/10 05:50:31;;;;;;;19.70;7.82;;;;;;;17.75;100.00;101959.03;5042429;28;20484;-76
2023/07/10 05:52:56;;;;;;;21.33;8.95;;;;;;;17.79;100.00;101959.66;5041973;28;20091;-76
2023/07/10 05:55:22;;;;;;;21.08;8.00;;;;;;;17.82;100.00;101965.69;5039573;28;20028;-76
2023/07/10 05:57:47;;;;;;;18.00;7.93;;;;;;;17.86;100.00;101968.13;5051400;28;20039;-76
2023/07/10 06:00:14;;;;;;;19.05;7.57;;;;;;;17.90;100.00;101965.03;5052784;28;20079;-76
2023/07/10 06:02:39;;;;;;;19.70;7.50;;;;;;;17.96;100.00;101963.66;5047804;28;20029;-76
2023/07/10 06:05:08;;;;;;;20.75;7.70;;;;;;;18.01;100.00;101969.56;5032179;28;20055;-77
2023/07/10 06:07:33;;;;;;;20.73;7.65;;;;;;;18.05;100.00;101971.00;5033040;28;20174;-77
2023/07/10 06:09:58;;;;;;;18.73;6.97;;;;;;;18.08;100.00;101967.16;5043991;28;20147;-76
2023/07/10 06:12:24;;;;;;;19.88;6.97;;;;;;;18.12;100.00;101968.59;5065354;28;20044;-76
2023/07/10 06:14:49;;;;;;;19.20;7.72;;;;;;;18.16;100.00;101975.50;5041047;28;20083;-78
2023/07/10 06:17:14;;;;;;;18.92;6.60;;;;;;;18.19;100.00;101975.25;5039310;28;20121;-78
2023/07/10 06:19:40;;;;;;;17.95;7.25;;;;;;;18.23;100.00;101975.81;5058035;28;20392;-78
2023/07/10 06:22:08;;;;;;;17.05;6.68;;;;;;;18.26;99.76;101979.16;5059772;28;20025;-78
2023/07/10 06:24:34;;;;;;;21.67;7.80;;;;;;;18.28;99.26;101979.84;5053335;28;20025;-80
2023/07/10 06:26:59;;;;;;;17.63;6.78;;;;;;;18.34;99.65;101979.31;5057787;28;20047;-78
2023/07/10 06:29:24;;;;;;;18.85;6.93;;;;;;;18.38;99.30;101979.91;5035260;28;20032;-79
2023/07/10 06:31:50;;;;;;;19.85;7.45;;;;;;;18.42;98.27;101985.94;5059240;28;20032;-79
2023/07/10 06:34:15;;;;;;;18.63;6.90;;;;;;;18.45;96.74;101989.25;5032662;28;20114;-78
2023/07/10 06:36:40;;;;;;;18.80;6.15;;;;;;;18.50;96.91;101986.13;5032787;28;20701;-79
2023/07/10 06:39:08;;;;;;;20.35;7.15;;;;;;;18.56;96.43;101992.88;5052571;28;20037;-78
2023/07/10 06:41:34;;;;;;;18.75;5.78;;;;;;;18.58;94.07;101993.59;5051529;28;20166;-78
2023/07/10 06:43:59;;;;;;;19.40;6.85;;;;;;;18.60;93.38;101989.75;5042580;28;20535;-78
2023/07/10 06:46:25;;;;;;;19.70;5.60;;;;;;;18.65;93.26;101997.50;5048249;28;20112;-78
2023/07/10 06:48:51;;;;;;;18.10;5.45;;;;;;;18.67;91.37;101990.06;5032618;28;20074;-78
2023/07/10 06:51:16;;;;;;;16.40;5.57;;;;;;;18.73;92.80;101989.50;5043942;28;20508;-79
2023/07/10 06:53:42;;;;;;;15.73;5.10;;;;;;;18.74;89.81;101993.97;5058282;28;20044;-78
2023/07/10 06:56:07;;;;;;;18.98;5.30;;;;;;;18.80;89.34;101992.53;5039547;28;20040;-79
2023/07/10 06:58:34;;;;;;;17.13;4.30;;;;;;;18.82;87.86;102005.00;5058211;28;20028;-79
2023/07/10 07:01:00;;;;;;;16.27;5.35;;;;;;;18.85;87.77;102004.72;5037245;28;20028;-79
2023/07/10 07:03:27;;;;;;;17.95;6.10;;;;;;;18.89;86.57;102005.38;5047038;28;20115;-80
2023/07/10 07:05:53;;;;;;;15.35;4.60;;;;;;;18.95;87.90;102004.81;5039983;28;20029;-79
2023/07/10 07:08:19;;;;;;;17.95;4.97;;;;;;;18.98;86.86;101996.34;5056420;28;20041;-78
2023/07/10 07:10:45;;;;;;;18.58;4.80;;;;;;;19.05;87.60;101999.38;5057354;28;20096;-79
2023/07/10 07:13:11;;;;;;;20.55;4.85;;;;;;;19.11;86.14;101995.25;5031135;28;20082;-79
2023/07/10 07:15:36;;;;;;;21.77;5.70;;;;;;;19.18;86.68;102008.16;5047134;28;20877;-79
2023/07/10 07:18:03;;;;;;;17.88;5.38;;;;;;;19.21;85.35;101998.84;5036825;28;20052;-78
2023/07/10 07:20:32;;;;;;;18.67;4.97;;;;;;;19.26;86.32;102003.88;5027843;28;20495;-79
2023/07/10 07:22:57;;;;;;;21.00;5.50;;;;;;;19.29;84.97;102007.16;5035369;28;20196;-78
2023/07/10 07:25:23;;;;;;;21.90;5.70;;;;;;;19.34;85.71;102009.44;5034996;28;20108;-79
2023/07/10 07:27:48;;;;;;;18.48;5.65;;;;;;;19.35;83.64;102016.63;5050070;28;20135;-79
2023/07/10 07:30:14;;;;;;;18.77;6.35;;;;;;;19.36;84.64;102019.22;5035056;28;20373;-79
2023/07/10 07:32:40;;;;;;;20.73;6.22;;;;;;;19.41;85.72;102024.25;5035704;28;20059;-79
2023/07/10 07:35:08;;;;;;;17.73;6.15;;;;;;;19.44;84.94;102018.50;5060181;28;20563;-79
2023/07/10 07:37:34;;;;;;;17.00;6.00;;;;;;;19.49;84.87;102021.69;5033446;28;20488;-79
2023/07/10 07:40:01;;;;;;;19.92;6.30;;;;;;;19.51;84.81;102022.38;5044230;28;20040;-80
2023/07/10 07:42:28;;;;;;;17.38;6.00;;;;;;;19.54;84.59;102016.66;5051110;28;20116;-78
2023/07/10 07:44:55;;;;;;;15.13;4.85;;;;;;;19.61;85.33;102033.31;5059467;28;20040;-79
2023/07/10 07:47:20;;;;;;;19.45;6.18;;;;;;;19.65;85.64;102014.78;5033425;28;20029;-78
2023/07/10 07:49:45;;;;;;;17.63;5.30;;;;;;;19.66;83.31;102019.22;5050362;28;20024;-80
2023/07/10 07:52:11;;;;;;;17.40;5.60;;;;;;;19.71;83.27;102023.25;5038673;28;20039;-80
2023/07/10 07:54:36;;;;;;;15.13;4.75;;;;;;;19.73;81.79;102015.78;5034082;28;20021;-79
2023/07/10 07:57:01;;;;;;;14.48;4.20;;;;;;;19.79;80.67;102011.66;5045309;28;20155;-79
2023/07/10 07:59:27;;;;;;;16.75;4.57;;;;;;;19.81;80.83;102015.13;5050312;28;20059;-78
2023/07/10 08:01:52;;;;;;;15.57;5.03;;;;;;;19.85;81.56;102004.75;5043571;28;20054;-81
2023/07/10 08:04:19;;;;;;;15.25;4.43;;;;;;;19.88;78.28;102008.06;5041293;28;20521;-81
2023/07/10 08:06:47;;;;;;;10.57;3.58;;;;;;;19.92;79.43;101999.59;5047961;28;20025;-80
2023/07/10 08:09:12;;;;;;;13.53;4.67;;;;;;;19.94;77.60;101994.84;5052946;28;20436;-78
2023/07/10 08:11:38;;;;;;;15.90;4.15;;;;;;;19.97;77.07;101997.28;5037939;28;20386;-79
2023/07/10 08:14:03;;;;;;;15.38;4.20;;;;;;;20.00;76.45;102003.31;5033090;28;20199;-79
2023/07/10 08:16:28;;;;;;;15.82;4.03;;;;;;;20.02;75.96;102014.06;5030056;28;20129;-79
2023/07/10 08:18:57;;;;;;;13.55;4.03;;;;;;;20.06;76.82;102010.06;5046879;28;20029;-78
2023/07/10 08:21:22;;;;;;;15.87;4.27;;;;;;;20.11;75.86;102004.16;5034014;28;20104;-80
2023/07/10 08:23:48;;;;;;;18.13;4.45;;;;;;;20.15;76.15;102008.31;5036243;28;20036;-80
2023/07/10 08:26:13;;;;;;;14.82;3.53;;;;;;;20.18;77.32;102003.41;5032825;28;20028;-80
2023/07/10 08:28:39;;;;;;;14.68;4.03;;;;;;;20.21;73.51;102005.00;5044805;28;20113;-80
2023/07/10 08:31:04;;;;;;;11.30;3.92;;;;;;;20.27;75.86;102009.00;5057333;28;20479;-79
2023/07/10 08:33:29;;;;;;;18.85;4.22;;;;;;;20.31;75.36;102002.22;5055887;28;20100;-79
2023/07/10 08:35:56;;;;;;;16.25;4.30;;;;;;;20.34;74.22;102015.59;5060980;28;20152;-81
2023/07/10 08:38:22;;;;;;;14.85;3.35;;;;;;;20.37;74.05;102012.56;5035770;28;20042;-78
2023/07/10 08:40:50;;;;;;;17.45;4.47;;;;;;;20.41;74.80;102013.97;5023644;28;20044;-79
2023/07/10 08:43:28;;;;;;;15.50;4.18;;;;;;;20.46;73.13;102006.19;5060078;28;20040;-80
2023/07/10 08:46:06;;;;;;;16.35;4.00;;;;;;;20.49;72.77;102008.63;5034544;28;20044;-79
2023/07/10 08:48:38;;;;;;;12.43;3.28;;;;;;;20.52;72.53;102005.59;5040848;28;20063;-79
2023/07/10 08:51:15;;;;;;;10.38;3.22;;;;;;;20.56;71.88;102000.72;5033528;28;20048;-79
2023/07/10 08:53:43;;;;;;;19.88;3.85;;;;;;;20.64;69.60;102002.69;5041756;28;20124;-79
2023/07/10 08:56:17;;;;;;;10.07;3.28;;;;;;;20.69;70.01;102009.44;5056623;28;20117;-80
2023/07/10 08:58:43;;;;;;;14.93;3.05;;;;;;;20.72;68.46;102005.56;5058081;28;20029;-80
2023/07/10 09:01:26;;;;;;;15.00;3.38;;;;;;;20.77;71.86;102008.69;5038537;28;20043;-78
2023/07/10 09:03:55;;;;;;;14.88;4.38;;;;;;;20.83;73.38;102009.94;5036204;28;20427;-79
2023/07/10 09:06:41;;;;;;;15.77;3.75;;;;;;;20.88;72.85;102013.94;5038603;28;20024;-80
2023/07/10 09:09:19;;;;;;;12.43;3.40;;;;;;;20.94;72.09;102013.34;5057815;28;20024;-79
2023/07/10 09:11:46;;;;;;;14.52;4.18;;;;;;;20.98;71.83;102013.03;5043217;28;20395;-78
2023/07/10 09:14:37;;;;;;;16.33;4.18;;;;;;;21.08;72.04;102022.91;5052590;28;20035;-80
2023/07/10 09:17:15;;;;;;;11.23;3.50;;;;;;;21.06;70.27;102005.78;5048443;28;20461;-77
2023/07/10 09:19:42;;;;;;;10.77;3.85;;;;;;;21.13;70.94;102001.44;5034919;28;20020;-79
2023/07/10 09:22:10;;;;;;;13.40;3.00;;;;;;;21.17;72.38;101999.22;5047413;28;20094;-79
2023/07/10 09:24:35;;;;;;;14.00;4.00;;;;;;;21.19;69.92;102008.16;5054652;28;20028;-79
2023/07/10 09:27:01;;;;;;;13.68;3.88;;;;;;;21.22;69.51;102007.84;5052908;28;20032;-80
2023/07/10 09:29:31;;;;;;;13.95;3.45;;;;;;;21.26;70.92;102013.84;5054925;28;20016;-78
2023/07/10 09:32:03;;;;;;;13.63;3.90;;;;;;;21.33;69.86;102009.47;5045288;28;20614;-77
2023/07/10 09:34:33;;;;;;;13.38;3.15;;;;;;;21.35;68.45;102006.59;5045300;28;20029;-76
2023/07/10 09:37:02;;;;;;;18.70;4.13;;;;;;;21.39;72.29;101999.78;5033872;28;20154;-78
2023/07/10 09:39:29;;;;;;;14.33;4.40;;;;;;;21.34;79.36;102007.63;5044722;28;20134;-80
2023/07/10 09:41:58;;;;;;;18.63;4.60;;;;;;;20.98;100.00;102002.09;5054608;28;20033;-79
2023/07/10 09:44:32;;;;;;;13.90;4.53;;;;;;;20.59;100.00;102017.63;5062007;28;20456;-78
2023/07/10 09:47:12;;;;;;;16.13;3.78;;;;;;;20.03;97.75;102007.59;5027483;28;20028;-79
2023/07/10 09:49:46;;;;;;;13.88;3.85;;;;;;;19.49;99.00;102005.31;5046984;28;20044;-78
2023/07/10 09:52:31;;;;;;;12.70;3.75;;;;;;;19.14;100.00;102006.72;5031273;28;20124;-78
2023/07/10 09:54:58;;;;;;;14.77;3.78;;;;;;;19.10;100.00;102009.88;5028817;28;20032;-78
2023/07/10 09:57:23;;;;;;;17.33;3.53;;;;;;;19.04;100.00;102003.09;5050446;28;20522;-78
2023/07/10 09:59:51;;;;;;;15.07;3.60;;;;;;;19.04;100.00;102003.97;5038786;28;20032;-78
2023/07/10 10:02:23;;;;;;;12.50;3.58;;;;;;;19.22;100.00;102006.00;5058122;28;20546;-78
2023/07/10 10:05:00;;;;;;;15.23;4.35;;;;;;;19.42;93.88;102001.44;5044789;28;20477;-73
2023/07/10 10:07:25;;;;;;;11.45;3.90;;;;;;;19.52;100.00;101998.72;5043042;28;20496;-73
2023/07/10 10:10:18;;;;;;;12.63;4.10;;;;;;;19.72;96.73;102000.44;5065072;28;20064;-73
2023/07/10 10:12:46;;;;;;;14.38;3.80;;;;;;;19.85;94.83;101997.41;5035033;28;20060;-73
2023/07/10 10:15:22;;;;;;;15.10;3.33;;;;;;;19.92;95.71;101997.72;5038010;28;20031;-73
2023/07/10 10:17:49;;;;;;;16.95;3.50;;;;;;;20.04;80.51;102001.13;5047645;28;20476;-73
2023/07/10 10:20:28;;;;;;;15.50;3.60;;;;;;;20.20;82.21;102006.84;5049179;28;20032;-73
2023/07/10 10:22:53;;;;;;;14.00;3.37;;;;;;;20.37;86.40;102007.09;5053827;28;20032;-73
2023/07/10 10:25:26;;;;;;;8.95;3.17;;;;;;;20.56;74.50;102003.44;5041006;28;20295;-73
2023/07/10 10:28:08;;;;;;;12.07;3.85;;;;;;;20.78;74.86;101994.88;5046036;28;20052;-73
2023/07/10 10:30:58;;;;;;;12.75;3.63;;;;;;;20.88;76.21;102003.03;5033416;28;20341;-73
2023/07/10 10:33:52;;;;;;;15.43;4.15;;;;;;;21.00;75.74;102011.03;5051738;28;20410;-73
2023/07/10 10:36:38;;;;;;;9.27;3.20;;;;;;;21.12;74.11;102004.31;5053206;28;20486;-73
2023/07/10 10:39:14;;;;;;;14.23;4.13;;;;;;;21.25;74.90;101984.81;5050561;28;20036;-73
2023/07/10 10:41:55;;;;;;;14.73;3.63;;;;;;;21.24;75.94;102002.22;5047062;28;20040;-73
2023/07/10 10:44:48;;;;;;;10.10;3.40;;;;;;;21.24;75.71;101989.41;5049307;28;20140;-73
2023/07/10 10:48:12;;;;;;;12.88;3.42;;;;;;;21.24;74.16;101992.13;5033256;28;20139;-73
2023/07/10 10:51:00;;;;;;;13.73;3.85;;;;;;;21.19;74.00;101997.22;4981611;28;20427;-73
2023/07/10 10:53:32;;;;;;;11.17;2.73;;;;;;;21.25;70.32;101996.59;4978737;28;20092;-73
2023/07/10 10:56:16;;;;;;;12.13;3.33;;;;;;;21.35;73.71;101995.66;4984286;28;20061;-74
2023/07/10 10:59:15;;;;;;;14.43;3.28;;;;;;;21.47;74.64;102008.09;4996776;28;20041;-73
2023/07/10 11:01:53;;;;;;;14.00;3.70;;;;;;;21.56;71.29;102009.06;4992477;28;20466;-73
2023/07/10 11:04:32;;;;;;;11.38;3.50;;;;;;;21.58;70.33;102010.63;4992838;28;20398;-73
2023/07/10 11:07:03;;;;;;;11.45;3.45;;;;;;;21.57;69.24;102017.13;4967991;28;20200;-73
2023/07/10 11:09:39;;;;;;;9.55;3.25;;;;;;;21.56;71.38;102020.84;4992872;28;20026;-73
2023/07/10 11:12:10;;;;;;;15.77;3.40;;;;;;;21.60;70.66;102015.94;4984977;28;20439;-73
2023/07/10 11:14:35;;;;;;;13.07;3.15;;;;;;;21.63;68.87;102016.47;4967441;28;20020;-73
2023/07/10 11:17:01;;;;;;;16.35;3.78;;;;;;;21.63;65.60;102013.75;4971119;28;20443;-72